createdAt,value
2018-03-04T00:01:44.879Z,80.63
2018-03-04T00:04:12.421Z,83.53
2018-03-04T00:06:39.909Z,81.10
2018-03-04T00:09:07.364Z,77.53
2018-03-04T00:11:34.831Z,84.40
2018-03-04T00:14:02.278Z,85.00
2018-03-04T00:16:29.741Z,89.57
2018-03-04T00:18:57.486Z,83.27
2018-03-04T00:21:24.942Z,85.67
2018-03-04T00:23:52.621Z,85.70
2018-03-04T00:26:20.368Z,87.47
2018-03-04T00:28:47.832Z,89.77
2018-03-04T00:31:15.294Z,87.27
2018-03-04T00:33:42.746Z,86.77
2018-03-04T00:36:10.232Z,88.00
2018-03-04T00:38:37.691Z,89.93
2018-03-04T00:41:05.417Z,94.73
2018-03-04T00:43:32.874Z,91.97
2018-03-04T00:46:00.362Z,93.90
2018-03-04T00:48:27.818Z,88.17
2018-03-04T00:50:55.551Z,98.60
2018-03-04T00:53:23.016Z,94.80
2018-03-04T00:55:50.474Z,92.10
2018-03-04T00:58:17.943Z,92.50
2018-03-04T01:00:45.402Z,106.83
2018-03-04T01:03:13.310Z,92.17
2018-03-04T01:05:41.546Z,96.47
2018-03-04T01:08:09.287Z,88.53
2018-03-04T01:10:36.756Z,90.67
2018-03-04T01:13:04.219Z,96.20
2018-03-04T01:15:31.675Z,91.87
2018-03-04T01:17:59.527Z,91.53
2018-03-04T01:20:26.990Z,99.77
2018-03-04T01:22:54.450Z,106.73
2018-03-04T01:25:22.207Z,95.93
2018-03-04T01:27:49.972Z,95.77
2018-03-04T01:30:17.445Z,98.17
2018-03-04T01:32:45.670Z,95.37
2018-03-04T01:35:13.129Z,97.77
2018-03-04T01:37:41.638Z,99.03
2018-03-04T01:40:09.108Z,101.00
2018-03-04T01:42:36.557Z,99.47
2018-03-04T01:45:04.026Z,103.03
2018-03-04T01:47:31.485Z,92.70
2018-03-04T01:49:59.438Z,102.53
2018-03-04T01:52:26.908Z,95.87
2018-03-04T01:54:54.355Z,94.97
2018-03-04T01:57:21.818Z,92.20
2018-03-04T01:59:49.278Z,107.47
2018-03-04T02:02:17.025Z,95.60
2018-03-04T02:04:44.491Z,107.67
2018-03-04T02:07:11.990Z,109.03
2018-03-04T02:09:39.458Z,101.37
2018-03-04T02:12:06.914Z,106.23
2018-03-04T02:14:34.383Z,100.27
2018-03-04T02:17:02.084Z,107.60
2018-03-04T02:19:29.553Z,100.47
2018-03-04T02:24:30.838Z,98.20
2018-03-04T02:26:58.562Z,103.13
2018-03-04T02:29:26.031Z,102.13
2018-03-04T02:31:53.483Z,103.37
2018-03-04T02:34:20.946Z,97.63
2018-03-04T02:36:48.411Z,93.07
2018-03-04T02:39:15.865Z,114.40
2018-03-04T02:41:43.365Z,97.30
2018-03-04T02:44:11.893Z,109.63
2018-03-04T02:46:39.345Z,108.93
2018-03-04T02:49:06.845Z,94.73
2018-03-04T02:51:34.276Z,96.93
2018-03-04T02:54:01.962Z,98.00
2018-03-04T02:56:29.422Z,97.20
2018-03-04T02:58:56.884Z,106.60
2018-03-04T03:01:24.346Z,115.73
2018-03-04T03:03:51.841Z,102.33
2018-03-04T03:06:19.303Z,98.77
2018-03-04T03:08:46.759Z,98.20
2018-03-04T03:11:14.275Z,103.40
2018-03-04T03:13:41.690Z,106.50
2018-03-04T03:16:09.141Z,96.60
2018-03-04T03:18:36.897Z,98.77
2018-03-04T03:21:04.362Z,107.47
2018-03-04T03:23:31.829Z,109.40
2018-03-04T03:25:59.291Z,102.77
2018-03-04T03:28:26.758Z,100.60
2018-03-04T03:30:54.237Z,99.03
2018-03-04T03:33:21.683Z,107.40
2018-03-04T03:35:49.166Z,107.13
2018-03-04T03:38:17.786Z,107.73
2018-03-04T03:40:45.263Z,104.67
2018-03-04T03:43:13.006Z,108.67
2018-03-04T03:45:40.479Z,109.43
2018-03-04T03:48:07.938Z,115.20
2018-03-04T03:50:35.691Z,108.93
2018-03-04T03:53:03.163Z,107.87
2018-03-04T03:55:30.618Z,114.50
2018-03-04T03:57:58.091Z,104.67
2018-03-04T04:00:25.551Z,104.47
2018-03-04T04:02:53.001Z,102.83
2018-03-04T04:05:20.461Z,107.57
2018-03-04T04:07:47.917Z,105.70
2018-03-04T04:10:15.653Z,107.67
2018-03-04T04:12:43.347Z,106.37
2018-03-04T04:15:11.074Z,112.47
2018-03-04T04:17:38.538Z,116.07
2018-03-04T04:20:06.398Z,110.87
2018-03-04T04:22:33.860Z,110.07
2018-03-04T04:25:01.330Z,115.93
2018-03-04T04:27:28.786Z,117.97
2018-03-04T04:29:56.237Z,111.50
2018-03-04T04:32:23.706Z,111.30
2018-03-04T04:34:51.174Z,103.23
2018-03-04T04:37:18.634Z,110.90
2018-03-04T04:39:46.094Z,104.23
2018-03-04T04:42:13.582Z,107.33
2018-03-04T04:44:42.026Z,115.00
2018-03-04T04:47:09.757Z,111.37
2018-03-04T04:49:37.213Z,113.10
2018-03-04T04:52:04.674Z,108.53
2018-03-04T04:54:32.134Z,108.87
2018-03-04T04:56:59.604Z,109.37
2018-03-04T04:59:27.066Z,106.30
2018-03-04T05:01:54.807Z,114.93
2018-03-04T05:04:22.278Z,110.87
2018-03-04T05:06:50.031Z,101.57
2018-03-04T05:09:17.518Z,105.03
2018-03-04T05:11:44.977Z,104.33
2018-03-04T05:14:12.706Z,102.97
2018-03-04T05:16:40.167Z,103.37
2018-03-04T05:19:07.628Z,99.87
2018-03-04T05:21:35.099Z,99.40
2018-03-04T05:24:03.318Z,96.47
2018-03-04T05:26:31.555Z,101.83
2018-03-04T05:28:59.011Z,98.23
2018-03-04T05:31:27.266Z,93.23
2018-03-04T05:33:55.027Z,96.43
2018-03-04T05:36:22.487Z,91.37
2018-03-04T05:38:49.948Z,89.67
2018-03-04T05:41:17.701Z,95.00
2018-03-04T05:43:45.162Z,96.53
2018-03-04T05:46:12.631Z,90.93
2018-03-04T05:48:40.093Z,89.07
2018-03-04T05:51:07.546Z,87.93
2018-03-04T05:53:35.779Z,91.37
2018-03-04T05:56:04.291Z,87.70
2018-03-04T05:58:32.051Z,90.57
2018-03-04T06:00:59.518Z,94.67
2018-03-04T06:03:27.277Z,99.97
2018-03-04T06:05:54.751Z,93.27
2018-03-04T06:08:22.206Z,90.50
2018-03-04T06:10:50.438Z,93.47
2018-03-04T06:13:18.746Z,76.90
2018-03-04T06:15:46.209Z,72.67
2018-03-04T06:18:13.665Z,91.73
2018-03-04T06:20:41.134Z,80.70
2018-03-04T06:23:09.596Z,88.63
2018-03-04T06:25:37.355Z,76.93
2018-03-04T06:28:04.831Z,72.40
2018-03-04T06:30:32.314Z,74.43
2018-03-04T06:33:00.036Z,73.93
2018-03-04T06:35:27.495Z,73.37
2018-03-04T06:37:54.963Z,76.43
2018-03-04T06:40:22.423Z,74.07
2018-03-04T06:42:50.169Z,89.07
2018-03-04T06:45:17.938Z,108.37
2018-03-04T06:47:45.411Z,75.77
2018-03-04T06:50:12.886Z,71.60
2018-03-04T06:52:40.337Z,66.27
2018-03-04T06:55:07.808Z,69.87
2018-03-04T06:57:35.262Z,72.93
2018-03-04T07:00:02.730Z,78.83
2018-03-04T07:02:30.247Z,74.80
2018-03-04T07:04:57.697Z,74.03
2018-03-04T07:07:25.164Z,76.67
2018-03-04T07:09:52.622Z,69.60
2018-03-04T07:12:20.373Z,72.90
2018-03-04T07:14:47.830Z,79.13
2018-03-04T07:17:15.299Z,74.83
2018-03-04T07:19:43.045Z,73.87
2018-03-04T07:22:10.815Z,74.83
2018-03-04T07:24:38.280Z,79.83
2018-03-04T07:27:05.743Z,72.63
2018-03-04T07:29:33.213Z,74.33
2018-03-04T07:32:00.662Z,71.30
2018-03-04T07:34:28.125Z,68.57
2018-03-04T07:36:55.600Z,72.17
2018-03-04T07:39:23.062Z,70.07
2018-03-04T07:41:50.748Z,70.43
2018-03-04T07:44:18.973Z,61.70
2018-03-04T07:46:46.442Z,68.13
2018-03-04T07:49:13.904Z,69.13
2018-03-04T07:51:41.626Z,70.77
2018-03-04T07:54:09.394Z,69.87
2018-03-04T07:56:36.855Z,72.57
2018-03-04T07:59:04.315Z,62.63
2018-03-04T08:01:31.782Z,64.37
2018-03-04T08:03:59.229Z,64.57
2018-03-04T08:06:26.690Z,68.23
2018-03-04T08:08:54.159Z,65.77
2018-03-04T08:11:21.697Z,64.67
2018-03-04T08:13:49.195Z,62.23
2018-03-04T08:16:16.719Z,63.67
2018-03-04T08:18:44.218Z,68.17
2018-03-04T08:21:12.455Z,69.07
2018-03-04T08:23:39.922Z,64.50
2018-03-04T08:26:19.362Z,60.83
2018-03-04T08:28:47.102Z,61.37
2018-03-04T08:31:14.578Z,63.57
2018-03-04T08:33:42.032Z,59.07
2018-03-04T08:36:09.500Z,60.63
2018-03-04T08:38:37.722Z,61.37
2018-03-04T08:41:05.515Z,60.37
2018-03-04T08:43:32.969Z,61.17
2018-03-04T08:46:00.451Z,54.23
2018-03-04T08:48:27.919Z,56.90
2018-03-04T08:50:58.738Z,56.50
2018-03-04T08:53:26.210Z,60.50
2018-03-04T08:55:56.377Z,55.43
2018-03-04T08:58:24.606Z,55.90
2018-03-04T09:00:52.060Z,53.30
2018-03-04T09:03:19.530Z,56.90
2018-03-04T09:05:46.990Z,50.60
2018-03-04T09:08:14.450Z,54.37
2018-03-04T09:10:41.922Z,58.83
2018-03-04T09:13:10.143Z,53.83
2018-03-04T09:15:37.668Z,55.50
2018-03-04T09:18:05.896Z,52.90
2018-03-04T09:20:33.378Z,54.60
2018-03-04T09:23:00.850Z,53.93
2018-03-04T09:25:28.307Z,55.70
2018-03-04T09:27:56.533Z,57.93
2018-03-04T09:30:24.281Z,59.20
2018-03-04T09:32:51.750Z,60.77
2018-03-04T09:35:19.204Z,56.90
2018-03-04T09:37:46.692Z,58.23
2018-03-04T09:40:14.142Z,53.53
2018-03-04T09:42:41.612Z,53.47
2018-03-04T09:45:09.331Z,58.53
2018-03-04T09:47:36.795Z,56.00
2018-03-04T09:50:04.255Z,57.87
2018-03-04T09:52:31.718Z,55.60
2018-03-04T09:54:59.176Z,56.57
2018-03-04T09:57:26.638Z,59.77
2018-03-04T09:59:54.098Z,55.77
2018-03-04T10:02:21.564Z,62.03
2018-03-04T10:04:49.015Z,56.53
2018-03-04T10:07:16.483Z,61.70
2018-03-04T10:09:43.966Z,61.63
2018-03-04T10:12:12.179Z,57.37
2018-03-04T10:14:39.648Z,58.37
2018-03-04T10:17:07.106Z,54.27
2018-03-04T10:19:34.584Z,57.70
2018-03-04T10:22:02.050Z,57.27
2018-03-04T10:24:29.502Z,52.27
2018-03-04T10:26:56.963Z,53.33
2018-03-04T10:29:24.418Z,53.23
2018-03-04T10:31:51.877Z,46.43
2018-03-04T10:34:19.338Z,47.00
2018-03-04T10:36:46.956Z,45.57
2018-03-04T10:39:14.423Z,43.20
2018-03-04T10:41:41.888Z,41.00
2018-03-04T10:44:09.347Z,37.00
2018-03-04T10:46:36.799Z,34.40
2018-03-04T10:49:04.478Z,34.23
2018-03-04T10:51:32.202Z,32.77
2018-03-04T10:53:59.890Z,29.40
2018-03-04T10:56:27.358Z,31.87
2018-03-04T10:58:54.822Z,30.60
2018-03-04T11:01:28.381Z,30.67
2018-03-04T11:03:56.198Z,24.30
2018-03-04T11:06:23.631Z,23.83
2018-03-04T11:08:51.312Z,21.97
2018-03-04T11:11:18.781Z,19.03
2018-03-04T11:13:47.008Z,20.67
2018-03-04T11:16:14.474Z,21.87
2018-03-04T11:18:41.942Z,20.43
2018-03-04T11:21:09.407Z,16.83
2018-03-04T11:23:36.870Z,18.23
2018-03-04T11:26:04.334Z,19.03
2018-03-04T11:28:32.079Z,23.10
2018-03-04T11:30:59.510Z,25.60
2018-03-04T11:33:26.988Z,28.30
2018-03-04T11:35:54.455Z,30.67
2018-03-04T11:38:21.918Z,30.63
2018-03-04T11:40:49.408Z,32.80
2018-03-04T11:43:17.680Z,28.67
2018-03-04T11:45:45.969Z,29.77
2018-03-04T11:48:13.427Z,26.23
2018-03-04T11:50:40.894Z,27.07
2018-03-04T11:53:08.361Z,25.97
2018-03-04T11:55:35.822Z,25.43
2018-03-04T11:58:03.284Z,24.57
2018-03-04T12:00:30.947Z,25.10
2018-03-04T12:02:58.406Z,25.47
2018-03-04T12:05:25.870Z,25.13
2018-03-04T12:07:53.334Z,20.10
2018-03-04T12:10:20.794Z,21.57
2018-03-04T12:12:48.249Z,22.70
2018-03-04T12:15:26.697Z,20.13
2018-03-04T12:17:54.923Z,19.07
2018-03-04T12:20:22.391Z,21.17
2018-03-04T12:22:49.870Z,20.87
2018-03-04T12:25:18.122Z,23.17
2018-03-04T12:27:45.602Z,22.13
2018-03-04T12:30:13.059Z,23.17
2018-03-04T12:32:40.535Z,24.00
2018-03-04T12:35:08.763Z,19.27
2018-03-04T12:37:36.231Z,21.60
2018-03-04T12:40:03.721Z,19.23
2018-03-04T12:42:31.276Z,19.80
2018-03-04T12:44:58.735Z,18.93
2018-03-04T12:47:26.232Z,20.40
2018-03-04T12:49:54.720Z,18.37
2018-03-04T12:52:22.197Z,20.23
2018-03-04T12:54:49.654Z,18.07
2018-03-04T12:57:17.126Z,18.23
2018-03-04T12:59:44.592Z,18.60
2018-03-04T13:02:12.054Z,16.70
2018-03-04T13:04:39.515Z,17.50
2018-03-04T13:07:06.969Z,16.77
2018-03-04T13:09:34.458Z,18.27
2018-03-04T13:12:01.918Z,18.50
2018-03-04T13:14:29.377Z,14.13
2018-03-04T13:16:56.831Z,13.47
2018-03-04T13:19:24.294Z,14.20
2018-03-04T13:21:51.758Z,14.23
2018-03-04T13:24:19.221Z,11.50
2018-03-04T13:26:46.678Z,14.73
2018-03-04T13:29:14.183Z,13.90
2018-03-04T13:31:41.651Z,12.63
2018-03-04T13:34:10.171Z,11.13
2018-03-04T13:36:37.636Z,12.97
2018-03-04T13:39:05.094Z,14.47
2018-03-04T13:41:32.854Z,16.57
2018-03-04T13:44:00.315Z,11.77
2018-03-04T13:46:27.885Z,14.57
2018-03-04T13:48:55.353Z,15.87
2018-03-04T13:51:22.805Z,17.70
2018-03-04T13:53:50.266Z,14.83
2018-03-04T13:56:17.947Z,14.67
2018-03-04T13:58:45.668Z,14.23
2018-03-04T14:01:13.426Z,17.43
2018-03-04T14:03:40.890Z,18.90
2018-03-04T14:06:08.346Z,18.60
2018-03-04T14:08:35.811Z,21.07
2018-03-04T14:11:03.271Z,15.90
2018-03-04T14:13:30.729Z,17.67
2018-03-04T14:15:58.191Z,17.50
2018-03-04T14:18:26.422Z,18.83
2018-03-04T14:20:54.658Z,17.63
2018-03-04T14:23:22.120Z,19.70
2018-03-04T14:25:49.594Z,17.27
2018-03-04T14:28:17.057Z,21.23
2018-03-04T14:30:45.293Z,19.50
2018-03-04T14:33:13.514Z,19.10
2018-03-04T14:35:41.747Z,19.43
2018-03-04T14:38:09.222Z,19.33
2018-03-04T14:40:37.465Z,19.33
2018-03-04T14:43:04.934Z,17.47
2018-03-04T14:45:32.390Z,19.23
2018-03-04T14:47:59.851Z,19.93
2018-03-04T14:50:28.091Z,21.77
2018-03-04T14:52:55.567Z,22.77
2018-03-04T14:55:23.322Z,20.67
2018-03-04T14:57:50.998Z,18.80
2018-03-04T15:00:18.850Z,18.97
2018-03-04T15:02:46.335Z,17.30
2018-03-04T15:05:13.795Z,20.17
2018-03-04T15:07:41.718Z,18.17
2018-03-04T15:10:09.180Z,17.77
2018-03-04T15:12:36.709Z,17.40
2018-03-04T15:15:07.066Z,19.77
2018-03-04T15:17:34.538Z,17.90
2018-03-04T15:20:03.798Z,17.67
2018-03-04T15:22:32.030Z,19.23
2018-03-04T15:24:59.501Z,17.47
2018-03-04T15:27:26.967Z,19.10
2018-03-04T15:29:54.425Z,18.13
2018-03-04T15:32:21.888Z,19.33
2018-03-04T15:34:50.007Z,21.10
2018-03-04T15:37:17.462Z,20.73
2018-03-04T15:39:44.926Z,18.83
2018-03-04T15:42:12.382Z,19.63
2018-03-04T15:44:39.850Z,19.80
2018-03-04T15:47:07.302Z,20.30
2018-03-04T15:49:34.983Z,20.10
2018-03-04T15:52:02.456Z,16.87
2018-03-04T15:54:29.909Z,20.17
2018-03-04T15:56:57.368Z,15.83
2018-03-04T15:59:25.086Z,20.73
2018-03-04T16:01:52.554Z,20.03
2018-03-04T16:04:20.023Z,19.83
2018-03-04T16:06:47.481Z,21.13
2018-03-04T16:09:14.944Z,20.33
2018-03-04T16:11:43.190Z,18.23
2018-03-04T16:14:10.657Z,20.87
2018-03-04T16:16:38.414Z,21.20
2018-03-04T16:19:05.883Z,20.47
2018-03-04T16:21:33.338Z,19.73
2018-03-04T16:24:00.805Z,17.87
2018-03-04T16:26:28.547Z,21.17
2018-03-04T16:28:56.315Z,16.73
2018-03-04T16:31:23.776Z,19.00
2018-03-04T16:33:51.239Z,17.63
2018-03-04T16:36:18.695Z,19.83
2018-03-04T16:38:46.157Z,19.07
2018-03-04T16:41:13.626Z,17.93
2018-03-04T16:43:41.094Z,22.33
2018-03-04T16:46:08.581Z,19.57
2018-03-04T16:48:36.834Z,22.67
2018-03-04T16:51:04.303Z,22.40
2018-03-04T16:53:32.562Z,20.93
2018-03-04T16:56:00.042Z,23.93
2018-03-04T16:58:28.338Z,24.83
2018-03-04T17:00:55.750Z,28.43
2018-03-04T17:03:23.431Z,26.87
2018-03-04T17:05:50.898Z,28.67
2018-03-04T17:08:19.185Z,26.33
2018-03-04T17:10:47.402Z,25.20
2018-03-04T17:13:14.875Z,27.33
2018-03-04T17:15:42.331Z,26.23
2018-03-04T17:18:10.059Z,25.97
2018-03-04T17:20:37.527Z,25.97
2018-03-04T17:23:04.989Z,25.43
2018-03-04T17:25:32.459Z,26.37
2018-03-04T17:27:59.909Z,26.50
2018-03-04T17:30:28.142Z,28.40
2018-03-04T17:32:56.357Z,31.13
2018-03-04T17:35:23.823Z,30.63
2018-03-04T17:37:51.286Z,29.60
2018-03-04T17:40:18.766Z,30.43
2018-03-04T17:42:46.229Z,30.83
2018-03-04T17:45:14.455Z,32.97
2018-03-04T17:47:42.214Z,32.27
2018-03-04T17:50:09.674Z,27.77
2018-03-04T17:52:37.149Z,28.73
2018-03-04T17:55:04.605Z,29.93
2018-03-04T17:57:32.065Z,28.83
2018-03-04T17:59:59.522Z,29.67
2018-03-04T18:02:27.258Z,31.13
2018-03-04T18:04:55.022Z,26.73
2018-03-04T18:07:22.489Z,30.60
2018-03-04T18:09:49.950Z,33.37
2018-03-04T18:12:17.411Z,31.40
2018-03-04T18:14:44.870Z,30.53
2018-03-04T18:17:12.332Z,35.13
2018-03-04T18:19:39.799Z,32.30
2018-03-04T18:22:07.253Z,35.27
2018-03-04T18:24:35.186Z,32.43
2018-03-04T18:27:02.657Z,36.47
2018-03-04T18:29:30.126Z,34.00
2018-03-04T18:31:57.867Z,32.57
2018-03-04T18:34:25.324Z,34.30
2018-03-04T18:36:53.088Z,37.50
2018-03-04T18:39:20.551Z,38.23
2018-03-04T18:41:48.027Z,37.33
2018-03-04T18:44:15.496Z,37.63
2018-03-04T18:46:42.983Z,39.23
2018-03-04T18:49:12.527Z,40.87
2018-03-04T18:51:45.786Z,39.30
2018-03-04T18:54:13.963Z,40.17
2018-03-04T18:56:41.868Z,38.43
2018-03-04T18:59:09.628Z,40.10
2018-03-04T19:01:37.110Z,37.47
2018-03-04T19:04:04.586Z,42.80
2018-03-04T19:06:32.050Z,44.20
2018-03-04T19:09:00.630Z,51.67
2018-03-04T19:11:29.122Z,60.10
2018-03-04T19:13:57.366Z,49.53
2018-03-04T19:16:25.198Z,44.00
2018-03-04T19:18:52.674Z,43.30
2018-03-04T19:21:20.145Z,45.07
2018-03-04T19:23:47.609Z,46.87
2018-03-04T19:26:15.171Z,47.90
2018-03-04T19:28:42.684Z,45.27
2018-03-04T19:31:10.142Z,45.67
2018-03-04T19:33:37.602Z,52.17
2018-03-04T19:36:05.063Z,52.60
2018-03-04T19:38:33.644Z,50.63
2018-03-04T19:41:01.407Z,43.13
2018-03-04T19:43:32.080Z,59.53
2018-03-04T19:45:59.550Z,58.27
2018-03-04T19:48:27.009Z,54.00
2018-03-04T19:50:54.478Z,49.67
2018-03-04T19:53:25.230Z,55.53
2018-03-04T19:55:52.701Z,63.37
2018-03-04T19:58:20.162Z,63.10
2018-03-04T20:00:47.662Z,60.80
2018-03-04T20:03:15.383Z,65.20
2018-03-04T20:09:03.280Z,53.97
2018-03-04T20:11:33.497Z,49.27
2018-03-04T20:17:07.279Z,52.37
2018-03-04T20:19:34.858Z,54.90
2018-03-04T20:22:02.542Z,54.33
2018-03-04T20:24:30.116Z,54.90
2018-03-04T20:26:57.728Z,52.90
2018-03-04T20:29:25.303Z,53.23
2018-03-04T20:31:52.937Z,55.77
2018-03-04T20:34:21.252Z,53.27
2018-03-04T20:36:49.629Z,52.23
2018-03-04T20:39:17.220Z,55.50
2018-03-04T20:41:44.821Z,55.87
2018-03-04T20:44:12.408Z,59.83
2018-03-04T20:46:39.986Z,56.53
2018-03-04T20:49:07.568Z,57.97
2018-03-04T20:51:35.958Z,58.73
2018-03-04T20:54:03.539Z,60.30
2018-03-04T20:56:31.121Z,64.97
2018-03-04T20:58:58.696Z,57.23
2018-03-04T21:01:26.263Z,61.77
2018-03-04T21:03:53.825Z,61.80
2018-03-04T21:06:22.240Z,61.83
2018-03-04T21:08:49.825Z,59.47
2018-03-04T21:11:17.497Z,59.60
2018-03-04T21:13:45.084Z,59.57
2018-03-04T21:16:13.446Z,57.80
2018-03-04T21:18:41.027Z,57.43
2018-03-04T21:21:09.360Z,56.67
2018-03-04T21:23:36.979Z,59.27
2018-03-04T21:26:04.593Z,58.20
2018-03-04T21:28:32.180Z,60.17
2018-03-04T21:31:00.527Z,58.80
2018-03-04T21:33:28.888Z,58.83
2018-03-04T21:35:56.468Z,61.27
2018-03-04T21:38:25.175Z,63.70
2018-03-04T21:40:52.799Z,62.07
2018-03-04T21:43:20.353Z,60.03
2018-03-04T21:45:47.888Z,60.83
2018-03-04T21:48:15.457Z,60.93
2018-03-04T21:50:43.027Z,64.37
2018-03-04T21:53:10.592Z,59.33
2018-03-04T21:55:38.171Z,63.47
2018-03-04T21:58:05.749Z,60.73
2018-03-04T22:00:33.419Z,62.00
2018-03-04T22:03:00.984Z,60.97
2018-03-04T22:05:28.576Z,60.87
2018-03-04T22:07:56.149Z,59.87
2018-03-04T22:10:23.721Z,67.77
2018-03-04T22:12:52.087Z,60.80
2018-03-04T22:15:19.700Z,61.03
2018-03-04T22:17:47.318Z,59.67
2018-03-04T22:20:14.883Z,61.07
2018-03-04T22:22:43.221Z,62.60
2018-03-04T22:25:10.767Z,63.43
2018-03-04T22:27:38.382Z,60.10
2018-03-04T22:30:06.708Z,60.27
2018-03-04T22:32:34.260Z,61.73
2018-03-04T22:35:01.825Z,60.40
2018-03-04T22:37:29.390Z,63.77
2018-03-04T22:39:56.952Z,62.17
2018-03-04T22:42:24.532Z,63.57
2018-03-04T22:44:52.111Z,59.03
2018-03-04T22:47:19.700Z,61.17
2018-03-04T22:49:47.232Z,60.07
2018-03-04T22:52:15.585Z,60.53
2018-03-04T22:54:43.167Z,63.93
2018-03-04T22:57:11.523Z,67.23
2018-03-04T22:59:39.880Z,65.07
2018-03-04T23:02:07.483Z,62.70
2018-03-04T23:04:35.043Z,61.97
2018-03-04T23:07:03.364Z,64.53
2018-03-04T23:09:30.961Z,66.73
2018-03-04T23:11:58.534Z,70.47
2018-03-04T23:14:26.129Z,65.20
2018-03-04T23:16:53.694Z,67.77
2018-03-04T23:19:21.254Z,63.70
2018-03-04T23:21:48.852Z,66.23
2018-03-04T23:24:17.194Z,69.13
2018-03-04T23:26:44.740Z,64.43
2018-03-04T23:29:12.358Z,64.90
2018-03-04T23:31:39.960Z,61.37
2018-03-04T23:34:07.608Z,58.83
2018-03-04T23:36:35.965Z,64.47
2018-03-04T23:39:03.576Z,64.67
2018-03-04T23:41:31.941Z,59.53
2018-03-04T23:43:59.780Z,55.27
2018-03-04T23:46:27.377Z,61.73
2018-03-04T23:48:54.940Z,58.87
2018-03-04T23:51:22.528Z,63.40
2018-03-04T23:53:50.876Z,63.03
2018-03-04T23:56:18.490Z,60.97
2018-03-04T23:58:46.114Z,62.63
